Time;durP1;ratioP1;P1;durP2;ratioP2;P2;SDS_P1;SDS_P2;PMS_P1;PMS_P2;Temp;Humidity;BMP_temperature;BMP_pressure;BME280_temperature;BME280_humidity;BME280_pressure;Samples;Min_cycle;Max_cycle;Signal;HPM_P1;HPM_P2
2023/05/31 00:00:20;;;;;;;6.43;3.67;;;;;;;16.84;68.69;93982.84;5125075;27;20022;-79
2023/05/31 00:02:46;;;;;;;7.28;3.65;;;;;;;16.86;68.86;93983.28;5143676;27;20033;-79
2023/05/31 00:05:11;;;;;;;7.00;3.50;;;;;;;16.87;69.08;93987.53;5143292;27;20153;-79
2023/05/31 00:07:37;;;;;;;9.07;3.60;;;;;;;16.85;69.17;93997.88;5143752;27;20011;-79
2023/05/31 00:10:03;;;;;;;5.80;3.58;;;;;;;16.87;69.68;93995.59;5143194;27;20023;-78
2023/05/31 00:12:28;;;;;;;8.98;3.67;;;;;;;16.88;69.52;93997.19;5142799;28;20306;-78
2023/05/31 00:14:53;;;;;;;6.20;3.22;;;;;;;16.88;69.71;93989.09;5143172;28;20019;-79
2023/05/31 00:17:19;;;;;;;9.13;3.92;;;;;;;16.94;69.98;93989.63;5143772;28;20034;-82
2023/05/31 00:19:44;;;;;;;8.40;3.25;;;;;;;16.95;70.09;93993.88;5143339;28;20332;-79
2023/05/31 00:22:10;;;;;;;7.18;3.25;;;;;;;16.93;69.86;93988.81;5143255;28;20213;-78
2023/05/31 00:24:36;;;;;;;7.18;3.45;;;;;;;16.90;69.69;93992.22;5144064;27;20050;-79
2023/05/31 00:27:02;;;;;;;10.27;3.15;;;;;;;16.92;69.48;93989.97;5147321;27;20023;-80
2023/05/31 00:29:28;;;;;;;7.35;3.47;;;;;;;16.90;69.85;93989.53;5147960;27;20039;-79
2023/05/31 00:31:54;;;;;;;7.13;3.05;;;;;;;16.83;69.88;93992.03;5147744;27;20030;-79
2023/05/31 00:34:20;;;;;;;7.20;3.42;;;;;;;16.83;69.41;93989.34;5147252;27;20257;-82
2023/05/31 00:36:45;;;;;;;6.70;2.83;;;;;;;16.73;69.48;93989.84;5147147;27;20317;-81
2023/05/31 00:39:11;;;;;;;13.82;3.90;;;;;;;16.71;70.36;93997.50;5146866;27;20023;-86
2023/05/31 00:41:36;;;;;;;5.68;3.25;;;;;;;16.68;70.79;93996.28;5128606;27;20027;-85
2023/05/31 00:44:02;;;;;;;10.25;3.97;;;;;;;16.69;70.97;93994.38;5128314;27;20042;-81
2023/05/31 00:46:36;;;;;;;5.63;3.33;;;;;;;16.67;70.83;94005.50;5128505;27;20015;-79
2023/05/31 00:49:02;;;;;;;9.07;4.20;;;;;;;16.63;71.20;94002.72;5147139;27;20027;-78
2023/05/31 00:51:31;;;;;;;7.90;3.30;;;;;;;16.59;71.06;94004.53;5147058;27;20038;-78
2023/05/31 00:53:58;;;;;;;7.45;4.03;;;;;;;16.52;71.42;94000.88;5147356;27;20023;-80
2023/05/31 00:56:24;;;;;;;6.38;3.30;;;;;;;16.51;72.28;94004.72;5146793;27;20340;-79
2023/05/31 00:58:52;;;;;;;7.07;3.30;;;;;;;16.47;72.30;94004.63;5147103;27;20057;-78
2023/05/31 01:01:19;;;;;;;7.68;3.25;;;;;;;16.44;72.11;94010.69;5128716;27;20034;-78
2023/05/31 01:03:45;;;;;;;5.35;3.08;;;;;;;16.37;72.30;94002.44;5147176;27;20027;-78
2023/05/31 01:06:11;;;;;;;5.43;3.45;;;;;;;16.34;72.57;94005.81;5146812;27;20086;-79
2023/05/31 01:08:37;;;;;;;7.47;3.05;;;;;;;16.27;72.86;94006.44;5146857;27;20019;-78
2023/05/31 01:11:14;;;;;;;5.32;2.78;;;;;;;16.15;73.41;94007.28;5146550;27;20241;-79
2023/05/31 01:14:07;;;;;;;8.82;3.13;;;;;;;16.07;73.65;94007.44;5146814;27;20023;-83
2023/05/31 01:16:45;;;;;;;5.00;2.95;;;;;;;15.99;74.23;94014.50;5146400;27;20039;-77
2023/05/31 01:19:20;;;;;;;6.88;3.03;;;;;;;15.96;74.33;94016.00;5146345;27;20051;-78
2023/05/31 01:22:14;;;;;;;8.02;3.35;;;;;;;15.97;74.69;94006.00;5146548;27;20023;-79
2023/05/31 01:24:58;;;;;;;7.20;2.95;;;;;;;15.99;74.62;94012.59;5146568;27;20031;-82
2023/05/31 01:27:24;;;;;;;5.22;3.45;;;;;;;16.01;74.38;94013.03;5146761;27;20023;-80
2023/05/31 01:29:50;;;;;;;4.35;3.03;;;;;;;16.04;74.66;94006.22;5146550;27;20081;-81
2023/05/31 01:32:16;;;;;;;8.38;3.53;;;;;;;16.15;74.94;94006.50;5146554;27;20022;-80
2023/05/31 01:34:45;;;;;;;7.47;3.38;;;;;;;16.18;74.74;94001.22;5146118;27;20046;-80
2023/05/31 01:37:11;;;;;;;4.38;3.25;;;;;;;16.17;74.24;94007.72;5145306;27;20437;-81
2023/05/31 01:39:37;;;;;;;5.85;3.15;;;;;;;16.12;74.56;94002.59;5127963;27;20064;-80
2023/05/31 01:42:03;;;;;;;9.55;3.35;;;;;;;16.11;74.40;94003.69;5146083;27;20014;-79
2023/05/31 01:44:29;;;;;;;9.40;3.28;;;;;;;16.01;75.36;93998.81;5146162;27;20067;-79
2023/05/31 01:46:55;;;;;;;6.07;3.60;;;;;;;15.96;75.61;93994.50;5146163;27;20011;-82
2023/05/31 01:49:22;;;;;;;10.40;3.92;;;;;;;16.01;75.99;94004.19;5146147;27;20043;-78
2023/05/31 01:51:49;;;;;;;8.20;3.72;;;;;;;16.02;76.29;94000.41;5146041;27;20325;-79
2023/05/31 01:54:15;;;;;;;7.70;3.78;;;;;;;16.06;76.23;94006.66;5145709;27;20246;-79
2023/05/31 01:56:42;;;;;;;9.45;3.40;;;;;;;16.10;75.69;93999.47;5145876;27;20037;-82
2023/05/31 01:59:08;;;;;;;8.65;3.78;;;;;;;16.17;75.35;94009.63;5145722;27;20095;-78
2023/05/31 02:01:36;;;;;;;13.98;4.40;;;;;;;16.23;75.43;94000.94;5145724;27;20042;-79
2023/05/31 02:04:01;;;;;;;10.70;3.42;;;;;;;16.28;74.92;94007.97;5145723;27;20045;-79
2023/05/31 02:06:27;;;;;;;6.80;3.95;;;;;;;16.33;75.31;94010.44;5145667;27;20297;-79
2023/05/31 02:08:53;;;;;;;6.35;4.00;;;;;;;16.37;75.88;94007.84;5145530;27;20030;-78
2023/05/31 02:11:19;;;;;;;6.78;4.05;;;;;;;16.41;75.61;94006.78;5145468;27;20023;-78
2023/05/31 02:13:44;;;;;;;7.10;3.97;;;;;;;16.44;75.22;94011.50;5145254;27;20086;-78
2023/05/31 02:16:10;;;;;;;9.02;3.30;;;;;;;16.49;74.82;94012.34;5145224;27;20046;-77
2023/05/31 02:18:35;;;;;;;8.30;2.90;;;;;;;16.52;74.92;94014.34;5145512;27;20015;-78
2023/05/31 02:21:01;;;;;;;5.20;3.28;;;;;;;16.55;74.60;94014.44;5145423;27;20015;-81
2023/05/31 02:23:27;;;;;;;10.70;4.15;;;;;;;16.53;74.37;94014.00;5144481;27;20100;-81
2023/05/31 02:25:55;;;;;;;7.97;3.95;;;;;;;16.54;74.75;94009.41;5126563;27;20022;-81
2023/05/31 02:28:20;;;;;;;4.97;2.95;;;;;;;16.57;74.38;94012.19;5144900;27;20015;-80
2023/05/31 02:31:00;;;;;;;16.60;3.83;;;;;;;16.58;74.52;94008.34;5143999;27;20035;-80
2023/05/31 02:33:26;;;;;;;9.68;3.55;;;;;;;16.58;74.67;94011.03;5144485;27;20030;-81
2023/05/31 02:35:52;;;;;;;6.22;3.20;;;;;;;16.60;74.34;94013.38;5144212;27;20198;-81
2023/05/31 02:38:20;;;;;;;9.82;3.80;;;;;;;16.61;74.48;94009.59;5126502;27;20023;-80
2023/05/31 02:40:45;;;;;;;8.50;3.38;;;;;;;16.57;74.52;94012.19;5145018;27;20024;-80
2023/05/31 02:43:11;;;;;;;7.78;3.05;;;;;;;16.56;73.96;94018.69;5145256;27;20019;-80
2023/05/31 02:45:36;;;;;;;7.72;3.45;;;;;;;16.59;74.29;94014.53;5144797;27;20019;-80
2023/05/31 02:48:05;;;;;;;7.03;3.15;;;;;;;16.59;74.57;94009.16;5125970;27;20023;-79
2023/05/31 02:50:31;;;;;;;7.82;3.00;;;;;;;16.57;74.78;94009.50;5145068;27;20019;-79
2023/05/31 02:52:56;;;;;;;8.73;3.35;;;;;;;16.57;74.70;94006.81;5144488;27;20015;-79
2023/05/31 02:55:22;;;;;;;12.93;3.42;;;;;;;16.56;74.34;94007.91;5144792;27;20213;-80
2023/05/31 02:57:47;;;;;;;8.30;3.17;;;;;;;16.50;74.25;94006.59;5144977;27;20093;-79
2023/05/31 03:00:13;;;;;;;6.13;3.10;;;;;;;16.53;74.36;94008.63;5144595;27;20090;-79
2023/05/31 03:02:40;;;;;;;7.00;3.17;;;;;;;16.56;74.37;94017.91;5144254;27;20039;-79
2023/05/31 03:05:06;;;;;;;6.05;3.13;;;;;;;16.55;74.61;94016.34;5144504;27;20044;-80
2023/05/31 03:07:33;;;;;;;8.30;2.80;;;;;;;16.52;74.04;94012.44;5144585;27;20019;-79
2023/05/31 03:09:59;;;;;;;10.50;3.53;;;;;;;16.49;73.36;94013.13;5144431;27;20034;-79
2023/05/31 03:12:24;;;;;;;6.68;3.25;;;;;;;16.48;73.40;94014.25;5144185;27;20026;-79
2023/05/31 03:14:50;;;;;;;9.15;3.60;;;;;;;16.49;73.54;94020.44;5144213;27;20270;-79
2023/05/31 03:17:15;;;;;;;6.90;3.33;;;;;;;16.51;73.25;94016.25;5143683;27;20096;-80
2023/05/31 03:19:41;;;;;;;5.55;3.30;;;;;;;16.53;73.46;94019.38;5144381;27;20133;-79
2023/05/31 03:22:07;;;;;;;7.57;3.25;;;;;;;16.55;74.36;94017.13;5144144;27;20042;-79
2023/05/31 03:24:32;;;;;;;7.18;3.08;;;;;;;16.56;74.87;94017.91;5143987;27;20075;-79
2023/05/31 03:26:58;;;;;;;6.53;3.72;;;;;;;16.53;74.33;94021.31;5144031;27;20026;-79
2023/05/31 03:29:23;;;;;;;8.15;3.13;;;;;;;16.52;74.14;94020.50;5144061;27;20023;-79
2023/05/31 03:31:49;;;;;;;8.50;3.78;;;;;;;16.51;74.31;94018.94;5143866;27;20066;-79
2023/05/31 03:34:15;;;;;;;9.10;4.32;;;;;;;16.50;74.17;94027.34;5143949;27;20082;-79
2023/05/31 03:36:41;;;;;;;7.10;3.85;;;;;;;16.49;74.05;94023.91;5143760;27;20027;-78
2023/05/31 03:39:06;;;;;;;8.75;3.63;;;;;;;16.48;74.57;94026.94;5143945;27;20248;-79
2023/05/31 03:41:32;;;;;;;7.65;4.03;;;;;;;16.49;74.89;94029.28;5143782;27;20022;-79
2023/05/31 03:43:57;;;;;;;7.65;4.30;;;;;;;16.48;74.57;94026.94;5143668;27;20025;-79
2023/05/31 03:46:24;;;;;;;10.77;4.10;;;;;;;16.48;75.42;94030.38;5143627;27;20090;-79
2023/05/31 03:48:50;;;;;;;9.20;3.95;;;;;;;16.47;74.83;94036.91;5143891;27;20027;-79
2023/05/31 03:51:16;;;;;;;6.32;3.78;;;;;;;16.48;74.46;94049.22;5143345;27;20365;-79
2023/05/31 03:53:41;;;;;;;8.90;3.92;;;;;;;16.53;75.73;94037.44;5143948;27;20093;-81
2023/05/31 03:56:07;;;;;;;8.32;4.25;;;;;;;16.56;75.53;94042.91;5143200;27;20080;-80
2023/05/31 03:58:32;;;;;;;9.15;3.63;;;;;;;16.59;75.30;94047.59;5143419;27;20220;-80
2023/05/31 04:00:58;;;;;;;12.20;4.57;;;;;;;16.61;75.43;94042.66;5143921;27;20042;-80
2023/05/31 04:03:23;;;;;;;9.68;3.70;;;;;;;16.62;75.90;94044.19;5143517;27;20015;-80
2023/05/31 04:05:49;;;;;;;15.10;4.47;;;;;;;16.62;76.08;94052.28;5143414;27;20019;-79
2023/05/31 04:08:14;;;;;;;10.13;4.40;;;;;;;16.64;75.63;94057.31;5142963;27;20019;-79
2023/05/31 04:10:40;;;;;;;10.55;5.00;;;;;;;16.66;75.35;94052.38;5143530;27;20343;-79
2023/05/31 04:13:06;;;;;;;11.88;4.72;;;;;;;16.66;75.32;94055.06;5124857;28;20355;-79
2023/05/31 04:15:31;;;;;;;9.02;4.68;;;;;;;16.68;75.43;94046.66;5143221;28;20042;-79
2023/05/31 04:17:57;;;;;;;6.20;4.70;;;;;;;16.70;74.75;94055.94;5143253;28;20015;-78
2023/05/31 04:20:23;;;;;;;6.80;4.53;;;;;;;16.70;74.49;94049.78;5143515;28;20027;-81
2023/05/31 04:22:48;;;;;;;7.40;5.03;;;;;;;16.69;74.26;94046.31;5125006;28;20039;-78
2023/05/31 04:25:17;;;;;;;10.55;4.35;;;;;;;16.74;74.24;94051.41;5143074;28;20272;-79
2023/05/31 04:27:43;;;;;;;10.25;4.97;;;;;;;16.79;74.02;94058.44;5143453;28;20015;-80
2023/05/31 04:30:09;;;;;;;17.70;6.03;;;;;;;16.86;74.66;94061.34;5142909;28;20050;-80
2023/05/31 04:32:34;;;;;;;11.77;5.00;;;;;;;16.96;74.70;94060.06;5124938;28;20023;-80
2023/05/31 04:35:05;;;;;;;10.30;5.20;;;;;;;17.01;73.66;94062.47;5143094;28;20251;-80
2023/05/31 04:37:30;;;;;;;19.38;5.70;;;;;;;17.05;73.69;94072.19;5143316;28;20031;-80
2023/05/31 04:39:57;;;;;;;17.08;6.05;;;;;;;17.11;73.85;94070.03;5124935;28;20023;-79
2023/05/31 04:42:24;;;;;;;14.80;5.78;;;;;;;17.15;73.12;94078.97;5143155;28;20019;-79
2023/05/31 04:45:01;;;;;;;15.63;5.60;;;;;;;17.23;73.23;94077.22;5142992;28;20019;-79
2023/05/31 04:47:28;;;;;;;12.25;5.18;;;;;;;17.22;73.20;94070.28;5143292;28;20056;-79
2023/05/31 04:49:56;;;;;;;13.90;6.00;;;;;;;17.28;72.96;94079.66;5142610;28;20019;-79
2023/05/31 04:52:28;;;;;;;13.00;6.28;;;;;;;17.29;72.69;94078.50;5142986;28;20216;-79
2023/05/31 04:54:58;;;;;;;9.35;5.18;;;;;;;17.30;72.55;94074.72;5143247;28;20115;-79
2023/05/31 04:57:24;;;;;;;15.48;5.68;;;;;;;17.29;72.22;94075.81;5142699;28;20027;-78
2023/05/31 04:59:50;;;;;;;17.20;5.95;;;;;;;17.33;72.68;94084.00;5143120;28;20022;-78
2023/05/31 05:02:17;;;;;;;22.42;5.90;;;;;;;17.37;73.03;94080.25;5142874;28;20348;-77
2023/05/31 05:04:42;;;;;;;20.73;6.05;;;;;;;17.42;73.25;94090.75;5142900;28;20068;-77
2023/05/31 05:07:08;;;;;;;11.07;5.72;;;;;;;17.52;73.26;94088.66;5142766;28;20015;-77
2023/05/31 05:09:33;;;;;;;20.35;6.40;;;;;;;17.60;71.84;94084.97;5142623;27;20023;-77
2023/05/31 05:11:59;;;;;;;9.68;5.50;;;;;;;17.59;71.08;94088.81;5145741;27;20018;-77
2023/05/31 05:14:25;;;;;;;15.55;5.93;;;;;;;17.58;70.77;94095.31;5146440;27;20047;-79
2023/05/31 05:16:50;;;;;;;17.67;6.15;;;;;;;17.61;71.00;94097.34;5146318;27;20023;-76
2023/05/31 05:19:15;;;;;;;17.52;6.20;;;;;;;17.61;70.82;94100.81;5146554;27;20029;-77
2023/05/31 05:21:41;;;;;;;15.52;6.40;;;;;;;17.67;71.15;94106.72;5146194;27;20034;-78
2023/05/31 05:24:06;;;;;;;14.68;6.07;;;;;;;17.75;71.04;94113.81;5146074;27;20042;-77
2023/05/31 05:26:33;;;;;;;23.90;6.75;;;;;;;17.84;70.61;94103.63;5145747;27;20015;-77
2023/05/31 05:28:59;;;;;;;13.35;6.72;;;;;;;17.93;70.32;94103.44;5146262;27;20030;-78
2023/05/31 05:31:24;;;;;;;21.30;6.95;;;;;;;18.01;70.13;94112.44;5146466;27;20309;-79
2023/05/31 05:33:53;;;;;;;15.77;5.55;;;;;;;18.07;69.83;94116.41;5146305;27;20392;-79
2023/05/31 05:36:19;;;;;;;32.38;7.55;;;;;;;18.14;70.00;94118.50;5146517;27;20030;-78
2023/05/31 05:38:44;;;;;;;22.88;5.85;;;;;;;18.15;69.14;94115.44;5146184;27;20046;-78
2023/05/31 05:41:12;;;;;;;10.38;6.28;;;;;;;18.19;68.66;94110.88;5146339;27;20029;-78
2023/05/31 05:43:41;;;;;;;15.52;6.63;;;;;;;18.26;68.45;94112.97;5146076;27;20313;-78
2023/05/31 05:46:06;;;;;;;11.35;5.97;;;;;;;18.33;68.89;94109.63;5146301;27;20015;-78
2023/05/31 05:48:32;;;;;;;10.07;5.88;;;;;;;18.42;68.50;94112.91;5145544;27;20105;-77
2023/05/31 05:50:58;;;;;;;26.85;6.10;;;;;;;18.49;68.21;94113.03;5146178;27;20034;-77
2023/05/31 05:53:23;;;;;;;17.80;6.40;;;;;;;18.60;68.26;94118.63;5146367;27;20019;-78
2023/05/31 05:55:51;;;;;;;14.75;6.75;;;;;;;18.72;67.31;94117.69;5145905;27;20023;-77
2023/05/31 05:58:18;;;;;;;13.85;6.65;;;;;;;18.80;67.39;94117.47;5146081;27;20015;-77
2023/05/31 06:00:45;;;;;;;12.88;6.10;;;;;;;18.87;66.50;94116.84;5145822;27;20030;-78
2023/05/31 06:03:11;;;;;;;12.85;6.72;;;;;;;18.96;67.04;94117.38;5145952;27;20041;-77
2023/05/31 06:05:36;;;;;;;13.27;6.32;;;;;;;19.11;67.39;94120.31;5127974;27;20023;-78
2023/05/31 06:08:02;;;;;;;9.38;5.38;;;;;;;19.23;66.94;94117.41;5146382;27;20247;-77
2023/05/31 06:10:28;;;;;;;11.55;6.50;;;;;;;19.33;65.98;94116.81;5146083;27;20022;-87
2023/05/31 06:12:54;;;;;;;14.50;6.50;;;;;;;19.42;65.36;94122.75;5127098;27;20042;-82
2023/05/31 06:15:19;;;;;;;28.58;6.78;;;;;;;19.52;65.18;94112.44;5146164;27;20034;-88
2023/05/31 06:17:47;;;;;;;23.00;9.10;;;;;;;19.57;65.18;94112.94;5145623;27;20082;-81
2023/05/31 06:20:13;;;;;;;17.25;8.43;;;;;;;19.73;64.15;94118.22;5146122;27;20243;-80
2023/05/31 06:22:38;;;;;;;34.97;6.47;;;;;;;19.86;63.42;94121.47;5145659;27;20061;-80
2023/05/31 06:25:04;;;;;;;14.30;7.10;;;;;;;19.98;62.63;94125.91;5145908;27;20015;-80
2023/05/31 06:27:30;;;;;;;23.80;7.13;;;;;;;20.11;62.25;94115.63;5146154;27;20748;-82
2023/05/31 06:29:57;;;;;;;37.47;7.75;;;;;;;20.25;61.34;94118.50;5127773;27;20373;-78
2023/05/31 06:32:24;;;;;;;15.02;6.45;;;;;;;20.36;61.98;94110.53;5127104;27;20019;-77
2023/05/31 06:34:50;;;;;;;15.05;6.63;;;;;;;20.44;61.70;94115.66;5145221;27;20041;-79
2023/05/31 06:37:15;;;;;;;10.30;5.32;;;;;;;20.60;60.96;94126.31;5145027;27;20090;-74
2023/05/31 06:39:40;;;;;;;21.23;7.22;;;;;;;20.75;60.22;94118.34;5127149;27;20093;-74
2023/05/31 06:42:06;;;;;;;21.00;5.85;;;;;;;20.89;60.09;94123.91;5145694;27;20019;-74
2023/05/31 06:44:32;;;;;;;14.63;6.05;;;;;;;20.95;59.57;94119.69;5145426;27;20198;-74
2023/05/31 06:46:57;;;;;;;13.85;6.80;;;;;;;20.97;58.71;94122.03;5145409;27;20023;-74
2023/05/31 06:49:23;;;;;;;15.85;5.68;;;;;;;20.90;59.53;94122.72;5145322;27;20019;-75
2023/05/31 06:51:48;;;;;;;14.73;6.40;;;;;;;21.07;59.31;94126.00;5145121;27;20361;-74
2023/05/31 06:54:14;;;;;;;12.80;5.20;;;;;;;21.19;58.95;94126.50;5145385;27;20042;-76
2023/05/31 06:56:40;;;;;;;14.35;6.07;;;;;;;21.29;58.59;94130.47;5144791;27;20031;-75
2023/05/31 06:59:05;;;;;;;23.42;6.57;;;;;;;21.33;57.64;94128.56;5145127;27;20060;-76
2023/05/31 07:01:31;;;;;;;11.27;5.75;;;;;;;21.33;57.99;94123.13;5144676;27;20046;-75
2023/05/31 07:03:58;;;;;;;11.70;5.80;;;;;;;21.34;57.52;94126.63;5143482;27;20015;-76
2023/05/31 07:06:25;;;;;;;15.52;6.30;;;;;;;21.35;57.57;94126.25;5142922;27;20218;-76
2023/05/31 07:08:51;;;;;;;13.13;6.10;;;;;;;21.33;57.37;94117.72;5142653;27;20214;-75
2023/05/31 07:11:17;;;;;;;18.20;6.45;;;;;;;21.31;57.88;94125.44;5124407;27;20034;-76
2023/05/31 07:13:43;;;;;;;25.58;6.32;;;;;;;21.42;57.35;94129.03;5122598;27;20023;-76
2023/05/31 07:16:08;;;;;;;10.57;6.25;;;;;;;21.56;56.31;94124.88;5140734;27;20023;-75
2023/05/31 07:18:34;;;;;;;15.93;6.43;;;;;;;21.48;56.61;94129.47;5123997;27;20098;-76
2023/05/31 07:20:59;;;;;;;17.10;6.30;;;;;;;21.39;58.06;94128.97;5143798;27;20413;-75
2023/05/31 07:23:25;;;;;;;15.18;6.70;;;;;;;21.48;56.64;94115.91;5143866;27;20043;-76
2023/05/31 07:25:51;;;;;;;17.90;5.95;;;;;;;21.65;57.34;94122.63;5124420;27;20019;-76
2023/05/31 07:28:16;;;;;;;18.25;6.63;;;;;;;21.80;57.61;94126.22;5142710;27;20089;-76
2023/05/31 07:30:43;;;;;;;14.00;5.30;;;;;;;21.94;56.71;94125.50;5142673;27;20047;-76
2023/05/31 07:33:09;;;;;;;24.42;6.80;;;;;;;22.04;55.18;94127.50;5142158;27;20051;-76
2023/05/31 07:35:34;;;;;;;17.85;6.43;;;;;;;22.14;55.29;94120.59;5142223;27;20244;-76
2023/05/31 07:38:00;;;;;;;18.20;6.72;;;;;;;22.21;55.30;94121.41;5142451;27;20029;-76
2023/05/31 07:40:25;;;;;;;8.95;5.05;;;;;;;22.40;54.97;94122.28;5143444;27;20042;-76
2023/05/31 07:42:51;;;;;;;14.90;4.75;;;;;;;22.58;54.83;94125.06;5144328;27;20019;-76
2023/05/31 07:45:16;;;;;;;8.32;5.45;;;;;;;22.68;53.36;94115.41;5143972;27;20030;-76
2023/05/31 07:47:42;;;;;;;13.38;5.20;;;;;;;22.86;53.49;94110.78;5144172;27;20010;-76
2023/05/31 07:50:07;;;;;;;13.52;5.57;;;;;;;22.97;52.50;94118.97;5143126;27;20297;-75
2023/05/31 07:52:33;;;;;;;9.50;4.75;;;;;;;22.95;52.44;94119.34;5144040;27;20023;-76
2023/05/31 07:54:58;;;;;;;13.20;6.18;;;;;;;22.89;52.81;94110.00;5143780;27;20019;-75
2023/05/31 07:57:24;;;;;;;12.75;5.22;;;;;;;23.00;52.40;94121.69;5143425;27;20366;-76
2023/05/31 07:59:50;;;;;;;9.23;4.32;;;;;;;23.16;51.98;94117.84;5143862;27;20027;-76
2023/05/31 08:02:16;;;;;;;8.05;4.88;;;;;;;23.13;50.62;94113.19;5142968;27;20098;-76
2023/05/31 08:04:43;;;;;;;21.63;5.85;;;;;;;23.24;50.97;94111.25;5143714;27;20041;-75
2023/05/31 08:07:09;;;;;;;28.00;5.35;;;;;;;23.31;51.52;94111.25;5125240;27;20019;-76
2023/05/31 08:09:34;;;;;;;11.02;4.80;;;;;;;23.37;50.39;94112.44;5143659;27;20023;-76
2023/05/31 08:12:01;;;;;;;12.35;4.78;;;;;;;23.43;50.56;94105.44;5143653;27;20022;-76
2023/05/31 08:14:26;;;;;;;11.95;4.57;;;;;;;23.43;50.45;94100.00;5143601;27;20062;-75
2023/05/31 08:16:52;;;;;;;12.85;4.88;;;;;;;23.53;50.67;94103.88;5143318;28;20019;-76
2023/05/31 08:19:17;;;;;;;11.90;3.97;;;;;;;23.79;49.32;94102.72;5143773;28;20362;-76
2023/05/31 08:21:45;;;;;;;15.25;4.75;;;;;;;24.02;48.38;94101.50;5143473;28;20047;-76
2023/05/31 08:24:10;;;;;;;5.00;3.53;;;;;;;24.18;47.92;94104.56;5143127;28;20103;-76
2023/05/31 08:26:36;;;;;;;10.20;4.07;;;;;;;24.29;48.49;94098.31;5143646;28;20015;-76
2023/05/31 08:29:01;;;;;;;15.05;3.97;;;;;;;24.34;47.57;94103.31;5143362;28;20125;-76
2023/05/31 08:31:26;;;;;;;6.40;3.90;;;;;;;24.44;47.83;94107.94;5143319;28;20206;-76
2023/05/31 08:33:56;;;;;;;5.72;3.58;;;;;;;24.65;46.16;94103.59;5142694;28;20317;-76
2023/05/31 08:36:23;;;;;;;17.40;3.70;;;;;;;24.77;46.35;94101.22;5143240;28;20086;-76
2023/05/31 08:38:48;;;;;;;8.18;3.05;;;;;;;24.78;45.28;94105.50;5143365;28;20027;-76
2023/05/31 08:41:14;;;;;;;11.63;3.47;;;;;;;24.85;45.45;94093.00;5143461;28;20094;-76
2023/05/31 08:43:40;;;;;;;9.55;4.20;;;;;;;24.90;45.33;94096.06;5143020;28;20023;-76
2023/05/31 08:46:07;;;;;;;12.25;4.15;;;;;;;24.98;45.38;94100.31;5145224;27;20015;-76
2023/05/31 08:48:52;;;;;;;7.57;4.47;;;;;;;24.90;46.15;94092.59;5147720;27;20247;-76
2023/05/31 08:51:19;;;;;;;12.98;5.13;;;;;;;24.84;47.46;94092.22;5147424;27;20027;-76
2023/05/31 08:53:46;;;;;;;11.55;4.75;;;;;;;24.73;46.71;94080.59;5147220;27;20313;-76
2023/05/31 08:56:13;;;;;;;14.80;4.72;;;;;;;24.72;47.11;94085.28;5128758;27;20031;-76
2023/05/31 08:58:42;;;;;;;7.72;3.92;;;;;;;24.63;46.00;94083.00;5147410;27;20370;-77
2023/05/31 09:01:08;;;;;;;10.50;4.65;;;;;;;24.66;46.55;94078.69;5147292;27;20037;-76
2023/05/31 09:03:34;;;;;;;10.50;4.78;;;;;;;24.63;46.18;94072.09;5128351;27;20266;-76
2023/05/31 09:05:59;;;;;;;11.40;4.82;;;;;;;24.76;46.74;94074.34;5147245;27;20046;-76
2023/05/31 09:08:26;;;;;;;6.32;4.07;;;;;;;24.87;46.67;94074.28;5146806;27;20023;-76
2023/05/31 09:10:51;;;;;;;17.05;4.68;;;;;;;24.93;46.43;94062.56;5146855;27;20044;-76
2023/05/31 09:13:17;;;;;;;9.52;5.05;;;;;;;25.01;45.97;94061.34;5147205;27;20027;-76
2023/05/31 09:15:43;;;;;;;15.75;5.22;;;;;;;25.05;46.68;94063.25;5146463;27;20022;-76
2023/05/31 09:18:15;;;;;;;11.75;4.15;;;;;;;25.10;45.34;94060.13;5146475;27;20051;-76
2023/05/31 09:20:40;;;;;;;13.77;4.15;;;;;;;25.10;44.78;94068.31;5146813;27;20027;-77
2023/05/31 09:23:08;;;;;;;13.45;4.50;;;;;;;24.99;45.73;94057.47;5146811;27;20051;-76
2023/05/31 09:25:48;;;;;;;15.07;5.63;;;;;;;24.87;47.25;94061.44;5146543;27;20098;-76
2023/05/31 09:28:15;;;;;;;10.07;5.68;;;;;;;24.78;46.85;94058.38;5146654;27;20025;-76
2023/05/31 09:30:41;;;;;;;14.07;5.75;;;;;;;24.74;47.44;94061.13;5146644;27;20015;-76
2023/05/31 09:33:07;;;;;;;14.60;7.43;;;;;;;24.64;47.00;94059.25;5146244;27;20015;-76
2023/05/31 09:35:33;;;;;;;10.80;6.22;;;;;;;24.61;48.50;94062.78;5146246;27;20258;-76
2023/05/31 09:38:06;;;;;;;19.00;6.72;;;;;;;24.62;48.48;94064.31;5145966;27;20011;-76
2023/05/31 09:40:32;;;;;;;12.30;4.78;;;;;;;24.59;48.17;94051.50;5145753;27;20023;-76
2023/05/31 09:42:59;;;;;;;16.58;5.95;;;;;;;24.61;46.41;94052.63;5146243;27;20019;-75
2023/05/31 09:45:25;;;;;;;19.15;7.57;;;;;;;24.58;46.20;94050.69;5146224;27;20098;-75
2023/05/31 09:47:51;;;;;;;13.85;8.05;;;;;;;24.55;46.58;94042.56;5146384;27;20023;-76
2023/05/31 09:50:22;;;;;;;20.67;8.70;;;;;;;24.63;47.72;94038.63;5145814;27;20069;-75
2023/05/31 09:52:51;;;;;;;15.77;7.70;;;;;;;24.75;47.08;94037.38;5146084;27;20067;-77
2023/05/31 09:55:17;;;;;;;18.38;6.68;;;;;;;24.71;45.69;94036.59;5146091;27;20037;-77
2023/05/31 09:57:44;;;;;;;14.32;8.50;;;;;;;24.57;46.95;94035.53;5145528;27;20102;-76
2023/05/31 10:00:16;;;;;;;13.93;6.07;;;;;;;24.62;46.74;94024.22;5145984;27;20243;-76
2023/05/31 10:02:46;;;;;;;11.20;4.97;;;;;;;24.77;45.69;94026.84;5145882;27;20018;-77
2023/05/31 10:05:13;;;;;;;7.85;4.72;;;;;;;24.69;44.26;94025.34;5145356;27;20019;-77
2023/05/31 10:07:40;;;;;;;11.50;4.38;;;;;;;24.72;45.04;94038.19;5145901;27;20082;-76
2023/05/31 10:10:07;;;;;;;6.60;3.33;;;;;;;24.68;45.79;94040.91;5145742;27;20068;-74
2023/05/31 10:12:41;;;;;;;17.50;4.28;;;;;;;24.61;46.17;94038.25;5145722;27;20019;-75
2023/05/31 10:15:10;;;;;;;7.22;4.10;;;;;;;24.58;45.58;94037.06;5145812;27;20027;-75
2023/05/31 10:17:42;;;;;;;11.15;4.03;;;;;;;24.53;45.67;94034.78;5145291;27;20336;-75
2023/05/31 10:20:09;;;;;;;;;;;;;;;24.46;45.66;94042.19;5146218;27;20030;-77
2023/05/31 10:22:38;;;;;;;8.15;4.38;;;;;;;24.42;46.52;94042.19;5145228;27;19918;-77
2023/05/31 10:25:09;;;;;;;14.63;4.63;;;;;;;24.35;46.92;94042.25;5127291;27;20317;-77
2023/05/31 10:27:41;;;;;;;12.93;4.93;;;;;;;24.43;46.76;94041.03;5145492;27;20031;-77
2023/05/31 10:30:09;;;;;;;;;;;;;;;24.49;46.93;94036.72;5145845;27;20014;-77
2023/05/31 10:32:45;;;;;;;20.48;4.38;;;;;;;24.54;47.40;94030.88;5145279;27;19903;-75
2023/05/31 10:35:10;;;;;;;16.98;4.05;;;;;;;24.70;48.01;94021.44;5144873;27;20015;-75
2023/05/31 10:37:41;;;;;;;14.80;3.85;;;;;;;24.92;47.30;94020.13;5145198;27;20094;-76
2023/05/31 10:40:21;;;;;;;11.27;4.47;;;;;;;25.16;47.32;94029.28;5144991;27;20309;-75
2023/05/31 10:42:59;;;;;;;13.50;4.03;;;;;;;25.52;44.95;94023.53;5145356;27;20023;-77
2023/05/31 10:45:49;;;;;;;10.57;3.30;;;;;;;25.78;42.90;94019.38;5145125;27;20056;-81
2023/05/31 10:48:29;;;;;;;8.38;2.92;;;;;;;25.81;42.26;94015.84;5145144;27;20221;-75
2023/05/31 10:50:59;;;;;;;6.35;2.85;;;;;;;25.88;41.99;94017.72;5144510;27;20023;-75
2023/05/31 10:53:30;;;;;;;7.38;3.47;;;;;;;25.91;43.00;94011.47;5144443;27;20039;-75
2023/05/31 10:56:23;;;;;;;21.20;13.90;;;;;;;26.08;42.81;94019.88;5144607;27;20071;-76
2023/05/31 10:58:51;;;;;;;;;;;;;;;26.06;42.92;94014.81;5142083;27;20031;-77
2023/05/31 11:01:21;;;;;;;15.00;4.43;;;;;;;26.23;42.13;94016.53;5144726;27;19895;-80
2023/05/31 11:03:53;;;;;;;13.85;4.47;;;;;;;26.34;41.46;94010.19;5144970;27;20038;-76
2023/05/31 11:06:30;;;;;;;8.45;3.65;;;;;;;26.39;39.12;94004.25;5144231;27;20227;-77
2023/05/31 11:08:58;;;;;;;16.55;4.32;;;;;;;26.54;40.07;93996.63;5143743;27;20317;-75
2023/05/31 11:11:28;;;;;;;13.50;4.28;;;;;;;26.46;40.88;94001.44;5144547;27;20030;-76
2023/05/31 11:14:07;;;;;;;18.08;3.70;;;;;;;26.55;38.91;93996.22;5144996;27;20198;-76
2023/05/31 11:16:53;;;;;;;17.10;3.70;;;;;;;26.66;39.01;93996.06;5125650;27;20031;-76
2023/05/31 11:19:28;;;;;;;7.55;3.40;;;;;;;26.74;39.20;93994.03;5143628;27;20099;-75
2023/05/31 11:22:05;;;;;;;12.85;3.63;;;;;;;26.82;40.47;93990.00;5144277;27;20213;-76
2023/05/31 11:24:37;;;;;;;11.60;3.50;;;;;;;26.84;40.83;93989.59;5144560;27;20063;-76
2023/05/31 11:27:05;;;;;;;14.95;5.00;;;;;;;26.85;40.53;93988.38;5144083;27;20015;-76
2023/05/31 11:29:48;;;;;;;9.88;3.38;;;;;;;26.82;39.65;93984.53;5144181;27;20209;-76